createdAt,value
2023-04-20T00:45:57.061Z,5.97
2023-04-20T00:48:42.567Z,6.47
2023-04-20T00:51:29.394Z,6.78
2023-04-20T00:54:16.397Z,6.88
2023-04-20T00:57:01.271Z,6.38
2023-04-20T00:59:46.448Z,6.37
2023-04-20T01:48:09.887Z,5.22
2023-04-20T01:50:55.317Z,6.13
2023-04-20T01:53:40.219Z,5.03
2023-04-20T01:56:26.245Z,6.20
2023-04-20T01:59:11.023Z,7.20
2023-04-20T02:47:38.512Z,5.45
2023-04-20T02:50:24.480Z,6.20
2023-04-20T02:53:19.992Z,5.30
2023-04-20T02:56:10.916Z,5.85
2023-04-20T02:59:11.078Z,5.43
2023-04-20T03:46:28.989Z,5.20
2023-04-20T03:49:15.630Z,6.00
2023-04-20T03:52:00.829Z,7.50
2023-04-20T03:54:45.642Z,5.13
2023-04-20T03:57:34.216Z,5.97
2023-04-20T04:46:08.241Z,4.97
2023-04-20T04:48:53.736Z,5.22
2023-04-20T04:51:38.758Z,5.28
2023-04-20T04:54:24.116Z,4.63
2023-04-20T04:57:09.286Z,6.07
2023-04-20T04:59:54.685Z,6.40
2023-04-20T05:02:40.443Z,5.18
2023-04-20T05:05:25.901Z,5.13
2023-04-20T05:08:11.176Z,5.75
2023-04-20T05:10:57.235Z,6.50
2023-04-20T05:13:42.281Z,4.77
2023-04-20T05:16:27.562Z,6.90
2023-04-20T05:19:12.756Z,6.55
2023-04-20T05:21:57.718Z,5.82
2023-04-20T05:24:42.677Z,5.25
2023-04-20T05:27:27.492Z,5.50
2023-04-20T05:30:20.588Z,5.15
2023-04-20T05:33:06.993Z,6.55
2023-04-20T05:35:56.474Z,5.88
2023-04-20T05:38:41.602Z,7.15
2023-04-20T05:41:27.466Z,5.47
2023-04-20T05:44:12.197Z,6.38
2023-04-20T05:46:57.016Z,6.22
2023-04-20T05:49:42.406Z,6.30
2023-04-20T05:52:27.245Z,5.68
2023-04-20T05:55:12.184Z,6.13
2023-04-20T05:57:56.994Z,4.68
2023-04-20T06:00:42.441Z,5.85
2023-04-20T06:03:27.986Z,8.55
2023-04-20T06:06:14.491Z,6.80
2023-04-20T06:09:00.544Z,7.30
2023-04-20T06:11:45.823Z,6.38
2023-04-20T06:14:30.857Z,6.63
2023-04-20T06:17:16.177Z,5.57
2023-04-20T06:20:01.218Z,5.35
2023-04-20T06:22:46.306Z,8.70
2023-04-20T06:25:31.434Z,7.28
2023-04-20T06:28:16.604Z,5.72
2023-04-20T06:31:02.041Z,5.63
2023-04-20T06:33:47.316Z,8.15
2023-04-20T06:36:32.597Z,6.60
2023-04-20T06:39:18.047Z,6.32
2023-04-20T06:42:03.399Z,6.82
2023-04-20T06:44:48.874Z,8.13
2023-04-20T06:47:34.369Z,7.38
2023-04-20T06:50:19.548Z,8.33
2023-04-20T06:53:04.621Z,6.03
2023-04-20T06:55:49.728Z,9.23
2023-04-20T06:58:35.145Z,7.03
2023-04-20T07:01:20.278Z,6.53
2023-04-20T07:04:05.748Z,7.20
2023-04-20T07:06:53.390Z,7.68
2023-04-20T07:09:38.983Z,6.15
2023-04-20T07:12:23.948Z,7.13
2023-04-20T07:15:08.995Z,7.07
2023-04-20T07:17:54.147Z,6.90
2023-04-20T07:20:39.649Z,6.43
2023-04-20T07:23:24.958Z,5.30
2023-04-20T07:26:10.098Z,6.18
2023-04-20T07:28:55.388Z,7.85
2023-04-20T07:31:40.787Z,5.47
2023-04-20T07:34:26.280Z,7.35
2023-04-20T07:37:12.543Z,5.88
2023-04-20T07:39:57.624Z,6.30
2023-04-20T07:42:42.878Z,5.63
2023-04-20T07:45:27.702Z,5.37
2023-04-20T07:48:13.064Z,5.70
2023-04-20T07:50:58.393Z,7.07
2023-04-20T07:53:43.907Z,5.30
2023-04-20T07:56:28.668Z,7.07
2023-04-20T07:59:13.671Z,6.30
2023-04-20T08:02:00.551Z,8.25
2023-04-20T08:04:46.433Z,5.35
2023-04-20T08:07:31.942Z,6.18
2023-04-20T08:10:16.924Z,5.70
2023-04-20T08:13:01.916Z,5.87
2023-04-20T08:15:47.529Z,6.35
2023-04-20T08:18:32.773Z,5.80
2023-04-20T08:21:18.386Z,5.57
2023-04-20T08:24:04.268Z,6.25
2023-04-20T08:26:49.537Z,5.77
2023-04-20T08:29:34.786Z,6.55
2023-04-20T08:32:22.631Z,6.45
2023-04-20T08:35:08.575Z,4.75
2023-04-20T08:37:53.857Z,5.50
2023-04-20T08:40:39.096Z,6.07
2023-04-20T08:43:24.416Z,4.55
2023-04-20T08:46:09.634Z,5.22
2023-04-20T08:48:57.715Z,5.22
2023-04-20T08:51:43.284Z,5.20
2023-04-20T08:54:28.447Z,4.97
2023-04-20T08:57:13.285Z,5.40
2023-04-20T08:59:58.098Z,4.85
2023-04-20T09:02:53.528Z,5.00
2023-04-20T09:05:39.919Z,4.95
2023-04-20T09:08:39.840Z,5.10
2023-04-20T09:11:25.927Z,5.22
2023-04-20T09:14:16.419Z,4.68
2023-04-20T09:17:04.976Z,4.80
2023-04-20T09:19:53.663Z,6.38
2023-04-20T09:22:39.108Z,5.13
2023-04-20T09:25:28.823Z,4.93
2023-04-20T09:28:14.190Z,5.85
2023-04-20T09:30:59.485Z,5.72
2023-04-20T09:33:44.467Z,5.70
2023-04-20T09:36:37.529Z,5.83
2023-04-20T09:39:23.636Z,6.07
2023-04-20T09:42:11.522Z,4.40
2023-04-20T09:44:57.295Z,6.22
2023-04-20T09:47:42.984Z,6.63
2023-04-20T09:50:38.288Z,6.07
2023-04-20T09:53:31.614Z,6.07
2023-04-20T09:56:16.843Z,5.80
2023-04-20T09:59:03.754Z,5.50
2023-04-20T10:01:48.916Z,4.82
2023-04-20T10:04:34.385Z,5.00
2023-04-20T10:07:26.796Z,5.05
2023-04-20T10:10:16.084Z,5.22
2023-04-20T10:13:01.605Z,4.80
2023-04-20T10:15:46.545Z,6.25
2023-04-20T10:18:31.707Z,5.03
2023-04-20T10:21:16.997Z,5.60
2023-04-20T10:24:03.152Z,5.25
2023-04-20T10:26:48.749Z,4.47
2023-04-20T10:29:36.501Z,5.10
2023-04-20T10:32:31.073Z,5.30
2023-04-20T10:35:16.392Z,4.45
2023-04-20T10:38:01.374Z,5.65
2023-04-20T10:40:46.615Z,4.50
2023-04-20T10:43:32.124Z,4.60
2023-04-20T10:46:18.086Z,4.97
2023-04-20T10:49:03.546Z,4.18
2023-04-20T10:51:49.978Z,4.70
2023-04-20T10:54:39.177Z,4.80
2023-04-20T10:57:24.190Z,4.97
2023-04-20T11:00:20.237Z,4.80
2023-04-20T11:03:05.566Z,5.72
2023-04-20T11:05:51.747Z,7.03
2023-04-20T11:08:37.692Z,5.53
2023-04-20T11:11:29.640Z,5.35
2023-04-20T11:14:15.137Z,4.87
2023-04-20T11:17:00.718Z,6.45
2023-04-20T11:19:47.051Z,8.07
2023-04-20T11:22:32.910Z,4.97
2023-04-20T11:25:17.955Z,5.88
2023-04-20T11:28:09.216Z,5.00
2023-04-20T11:30:54.433Z,5.30
2023-04-20T11:33:39.407Z,6.45
2023-04-20T11:36:25.018Z,9.88
2023-04-20T11:39:12.853Z,10.00
2023-04-20T11:41:58.223Z,7.90
2023-04-20T11:44:43.663Z,7.72
2023-04-20T11:47:28.616Z,7.97
2023-04-20T11:50:14.361Z,7.65
2023-04-20T11:52:59.779Z,8.63
2023-04-20T11:55:44.789Z,7.90
2023-04-20T11:58:29.777Z,7.82
2023-04-20T12:01:16.826Z,10.02
2023-04-20T12:04:02.473Z,7.72
2023-04-20T12:06:47.834Z,7.50
2023-04-20T12:09:37.134Z,11.57
2023-04-20T12:12:22.203Z,21.58
2023-04-20T12:15:07.494Z,27.13
2023-04-20T12:17:53.180Z,30.70
2023-04-20T12:20:38.291Z,36.35
2023-04-20T12:23:23.117Z,51.27
2023-04-20T12:26:07.984Z,68.80
2023-04-20T12:28:53.613Z,91.50
2023-04-20T12:31:38.723Z,104.90
2023-04-20T12:34:24.146Z,98.63
2023-04-20T12:37:09.669Z,79.87
2023-04-20T12:39:54.913Z,89.40
2023-04-20T12:42:40.554Z,88.82
2023-04-20T12:45:25.775Z,91.05
2023-04-20T12:48:10.928Z,84.78
2023-04-20T12:50:56.383Z,87.57
2023-04-20T12:53:41.538Z,73.80
2023-04-20T12:56:26.927Z,72.35
2023-04-20T12:59:12.231Z,76.78
2023-04-20T13:01:57.124Z,78.85
2023-04-20T13:04:42.761Z,77.27
2023-04-20T13:07:28.058Z,72.55
2023-04-20T13:10:13.341Z,70.22
2023-04-20T13:12:59.629Z,56.00
2023-04-20T13:15:44.873Z,39.85
2023-04-20T13:18:29.778Z,27.43
2023-04-20T13:21:15.440Z,21.10
2023-04-20T13:24:00.896Z,18.08
2023-04-20T13:26:45.751Z,17.70
2023-04-20T13:29:31.169Z,15.73
2023-04-20T13:32:16.059Z,15.27
2023-04-20T13:35:02.057Z,12.75
2023-04-20T13:37:47.173Z,13.25
2023-04-20T13:40:32.196Z,12.50
2023-04-20T13:43:17.668Z,14.13
2023-04-20T13:46:04.392Z,13.17
2023-04-20T13:48:49.725Z,14.20
2023-04-20T13:51:35.105Z,13.88
2023-04-20T13:54:20.854Z,13.05
2023-04-20T13:57:06.017Z,12.63
2023-04-20T13:59:51.810Z,13.07
2023-04-20T14:02:37.028Z,11.88
2023-04-20T14:05:22.546Z,12.45
2023-04-20T14:08:07.950Z,12.55
2023-04-20T14:10:52.875Z,12.15
2023-04-20T14:13:38.198Z,11.60
2023-04-20T14:16:24.875Z,11.63
2023-04-20T14:19:10.328Z,13.48
2023-04-20T14:21:55.308Z,13.70
2023-04-20T14:24:40.748Z,13.30
2023-04-20T14:27:25.678Z,12.10
2023-04-20T14:30:11.507Z,11.15
2023-04-20T14:32:57.725Z,11.30
2023-04-20T14:35:43.281Z,13.85
2023-04-20T14:38:28.542Z,14.07
2023-04-20T14:41:14.891Z,12.40
2023-04-20T14:44:00.247Z,10.23
2023-04-20T14:46:45.308Z,15.45
2023-04-20T14:49:31.481Z,18.65
2023-04-20T14:52:16.489Z,13.02
2023-04-20T14:55:01.218Z,18.67
2023-04-20T14:57:46.189Z,11.90
2023-04-20T15:00:31.306Z,12.18
2023-04-20T15:03:17.201Z,11.57
2023-04-20T15:06:02.997Z,10.55
2023-04-20T15:08:48.028Z,12.30
2023-04-20T15:11:32.903Z,12.57
2023-04-20T15:14:18.150Z,11.88
2023-04-20T15:17:03.756Z,10.55
2023-04-20T15:19:49.161Z,12.32
2023-04-20T15:22:33.965Z,12.20
2023-04-20T15:25:18.949Z,15.98
2023-04-20T15:28:04.361Z,13.93
2023-04-20T15:30:49.446Z,11.20
2023-04-20T15:33:35.077Z,13.15
2023-04-20T15:36:20.489Z,12.37
2023-04-20T15:39:05.920Z,11.95
2023-04-20T15:41:51.531Z,11.63
2023-04-20T15:44:37.016Z,13.48
2023-04-20T15:47:22.256Z,15.38
2023-04-20T15:50:07.788Z,15.17
2023-04-20T15:52:54.025Z,11.88
2023-04-20T15:55:39.295Z,12.60
2023-04-20T15:58:24.304Z,11.43
2023-04-20T16:01:09.322Z,13.55
2023-04-20T16:03:54.883Z,13.20
2023-04-20T16:06:40.878Z,13.65
2023-04-20T16:09:25.638Z,13.57
2023-04-20T16:12:11.197Z,13.43
2023-04-20T16:14:57.113Z,12.40
2023-04-20T16:17:42.672Z,12.23
2023-04-20T16:20:28.278Z,13.63
2023-04-20T16:23:13.667Z,12.15
2023-04-20T16:25:58.741Z,14.40
2023-04-20T16:28:43.684Z,12.00
2023-04-20T16:31:29.604Z,13.87
2023-04-20T16:34:14.638Z,12.65
2023-04-20T16:36:59.957Z,13.30
2023-04-20T16:39:45.123Z,18.52
2023-04-20T16:42:30.092Z,16.38
2023-04-20T16:45:14.970Z,11.80
2023-04-20T16:48:00.663Z,13.25
2023-04-20T16:50:46.189Z,11.40
2023-04-20T16:53:31.249Z,10.77
2023-04-20T16:56:16.254Z,12.90
2023-04-20T16:59:01.507Z,14.27
2023-04-20T17:01:48.965Z,13.10
2023-04-20T17:04:35.750Z,11.73
2023-04-20T17:07:20.828Z,12.50
2023-04-20T17:10:05.965Z,12.40
2023-04-20T17:12:51.139Z,11.17
2023-04-20T17:15:36.720Z,11.63
2023-04-20T17:18:21.964Z,12.32
2023-04-20T17:21:06.900Z,11.98
2023-04-20T17:23:52.175Z,10.85
2023-04-20T17:26:37.124Z,12.00
2023-04-20T17:29:22.389Z,10.93
2023-04-20T17:32:07.402Z,11.18
2023-04-20T17:34:53.704Z,14.70
2023-04-20T17:37:38.887Z,10.55
2023-04-20T17:40:23.930Z,10.10
2023-04-20T17:43:09.340Z,9.50
2023-04-20T17:45:54.168Z,10.85
2023-04-20T17:48:39.547Z,11.43
2023-04-20T17:51:24.499Z,10.68
2023-04-20T17:54:09.661Z,10.27
2023-04-20T17:56:54.857Z,11.15
2023-04-20T17:59:42.266Z,11.27
2023-04-20T18:02:27.702Z,11.00
2023-04-20T18:05:12.920Z,10.02
2023-04-20T18:07:57.881Z,11.33
2023-04-20T18:10:42.768Z,11.05
2023-04-20T18:13:28.046Z,10.50
2023-04-20T18:16:13.232Z,11.15
2023-04-20T18:18:58.767Z,12.70
2023-04-20T18:21:43.577Z,10.53
2023-04-20T18:24:28.637Z,10.25
2023-04-20T18:27:13.804Z,11.25
2023-04-20T18:30:02.316Z,10.40
2023-04-20T18:32:48.022Z,10.52
2023-04-20T18:35:34.049Z,11.17
2023-04-20T18:38:19.200Z,10.07
2023-04-20T18:41:04.850Z,9.75
2023-04-20T18:43:52.555Z,10.05
2023-04-20T18:46:38.412Z,12.57
2023-04-20T18:49:24.305Z,12.67
2023-04-20T18:52:09.331Z,11.18
2023-04-20T18:54:55.337Z,8.65
2023-04-20T18:57:40.747Z,10.35
2023-04-20T19:00:25.821Z,10.32
2023-04-20T19:03:11.259Z,10.93
2023-04-20T19:05:56.140Z,9.65
2023-04-20T19:08:41.140Z,10.38
2023-04-20T19:11:25.936Z,11.50
2023-04-20T19:14:12.180Z,9.75
2023-04-20T19:16:57.372Z,10.57
2023-04-20T19:19:42.792Z,10.85
2023-04-20T19:22:28.366Z,12.50
2023-04-20T19:25:13.356Z,9.55
2023-04-20T19:27:58.931Z,10.23
2023-04-20T19:30:43.933Z,12.40
2023-04-20T19:33:28.963Z,10.20
2023-04-20T19:36:13.813Z,12.05
2023-04-20T19:38:58.732Z,9.55
2023-04-20T19:41:43.728Z,11.48
2023-04-20T19:44:28.549Z,12.60
2023-04-20T19:47:13.341Z,10.38
2023-04-20T19:49:58.084Z,11.98
2023-04-20T19:52:42.943Z,9.55
2023-04-20T19:55:27.720Z,10.20
2023-04-20T19:58:13.399Z,8.57
2023-04-20T20:00:59.526Z,10.90
2023-04-20T20:03:44.863Z,11.00
2023-04-20T20:06:30.968Z,9.65
2023-04-20T20:09:17.662Z,11.00
2023-04-20T20:12:04.721Z,8.80
2023-04-20T20:14:50.180Z,8.93
2023-04-20T20:17:35.615Z,9.00
2023-04-20T20:20:22.587Z,8.30
2023-04-20T20:23:07.804Z,9.90
2023-04-20T20:25:52.791Z,10.53
2023-04-20T20:28:37.900Z,9.10
2023-04-20T20:31:23.389Z,10.15
2023-04-20T20:34:09.279Z,11.25
2023-04-20T20:36:54.563Z,12.50
2023-04-20T20:39:39.836Z,8.90
2023-04-20T20:42:25.648Z,12.50
2023-04-20T20:45:12.819Z,12.77
2023-04-20T20:47:58.185Z,10.57
2023-04-20T20:50:43.594Z,9.23
2023-04-20T20:53:28.512Z,9.13
2023-04-20T20:56:14.003Z,9.88
2023-04-20T20:58:58.841Z,10.70
2023-04-20T21:01:43.807Z,12.30
2023-04-20T21:04:30.158Z,8.65
2023-04-20T21:07:15.349Z,10.67
2023-04-20T21:10:01.010Z,8.32
2023-04-20T21:12:46.090Z,9.68
2023-04-20T21:15:31.000Z,9.05
2023-04-20T21:18:16.140Z,8.95
2023-04-20T21:21:00.964Z,9.27
2023-04-20T21:23:45.761Z,9.93
2023-04-20T21:26:35.691Z,9.02
2023-04-20T21:29:21.113Z,9.80
2023-04-20T21:32:06.320Z,8.73
2023-04-20T21:34:52.564Z,8.03
2023-04-20T21:37:37.696Z,8.68
2023-04-20T21:40:25.140Z,8.07
2023-04-20T21:43:10.764Z,10.18
2023-04-20T21:45:55.981Z,10.57
2023-04-20T21:48:41.041Z,10.30
2023-04-20T21:51:26.352Z,8.95
2023-04-20T21:54:11.842Z,8.52
2023-04-20T21:56:57.052Z,9.93
2023-04-20T21:59:42.188Z,8.95
2023-04-20T22:02:27.270Z,9.77
2023-04-20T22:05:12.881Z,8.85
2023-04-20T22:07:58.036Z,9.00
2023-04-20T22:10:43.010Z,7.75
2023-04-20T22:13:27.775Z,8.40
2023-04-20T22:16:12.902Z,8.87
2023-04-20T22:18:58.264Z,6.85
2023-04-20T22:21:43.650Z,7.88
2023-04-20T22:24:28.616Z,8.68
2023-04-20T22:27:13.781Z,8.50
2023-04-20T22:29:59.665Z,7.57
2023-04-20T22:32:44.852Z,7.50
2023-04-20T22:35:30.524Z,8.23
2023-04-20T22:38:16.187Z,8.48
2023-04-20T22:41:01.575Z,7.90
2023-04-20T22:43:46.775Z,8.87
2023-04-20T22:46:31.642Z,8.20
2023-04-20T22:49:16.737Z,6.80
2023-04-20T22:52:01.924Z,7.30
2023-04-20T22:54:48.230Z,7.70
2023-04-20T22:57:33.839Z,7.13
2023-04-20T23:47:48.877Z,6.43
2023-04-20T23:50:34.365Z,6.95
2023-04-20T23:53:19.701Z,6.15
2023-04-20T23:56:05.257Z,7.57
2023-04-20T23:58:51.003Z,7.03
